createdAt,value
2017-07-23T00:00:31.151Z,36.20
2017-07-23T00:03:00.058Z,37.10
2017-07-23T00:05:28.933Z,38.27
2017-07-23T00:07:57.808Z,36.50
2017-07-23T00:10:26.707Z,41.40
2017-07-23T00:12:55.627Z,40.43
2017-07-23T00:15:24.527Z,40.03
2017-07-23T00:17:53.405Z,46.37
2017-07-23T00:20:22.294Z,37.87
2017-07-23T00:22:51.176Z,37.87
2017-07-23T00:25:20.083Z,45.70
2017-07-23T00:27:48.967Z,43.37
2017-07-23T00:30:17.869Z,42.60
2017-07-23T00:32:46.770Z,38.70
2017-07-23T00:35:15.662Z,41.17
2017-07-23T00:37:44.545Z,37.53
2017-07-23T00:40:13.450Z,36.07
2017-07-23T00:42:42.325Z,40.27
2017-07-23T00:45:11.223Z,39.57
2017-07-23T00:47:40.111Z,43.20
2017-07-23T00:50:09.024Z,41.90
2017-07-23T00:52:37.904Z,44.07
2017-07-23T00:55:06.886Z,43.50
2017-07-23T00:57:35.884Z,41.17
2017-07-23T01:00:04.860Z,47.87
2017-07-23T01:02:33.768Z,46.03
2017-07-23T01:05:02.651Z,44.53
2017-07-23T01:07:31.640Z,42.10
2017-07-23T01:10:00.529Z,46.20
2017-07-23T01:12:29.430Z,43.57
2017-07-23T01:14:58.302Z,67.17
2017-07-23T01:17:27.194Z,45.50
2017-07-23T01:19:56.084Z,42.87
2017-07-23T01:22:24.979Z,56.20
2017-07-23T01:24:53.867Z,44.67
2017-07-23T01:27:22.780Z,64.93
2017-07-23T01:29:51.650Z,134.87
2017-07-23T01:32:20.535Z,88.00
2017-07-23T01:34:49.440Z,44.27
2017-07-23T01:37:18.325Z,44.60
2017-07-23T01:39:47.231Z,79.47
2017-07-23T01:42:16.110Z,46.00
2017-07-23T01:44:45.011Z,77.40
2017-07-23T01:47:13.931Z,73.73
2017-07-23T01:49:42.825Z,48.97
2017-07-23T01:52:11.701Z,56.07
2017-07-23T01:54:40.615Z,41.90
2017-07-23T01:57:09.493Z,49.70
2017-07-23T01:59:38.388Z,46.43
2017-07-23T02:02:07.263Z,44.73
2017-07-23T02:04:36.171Z,43.20
2017-07-23T02:07:05.045Z,48.80
2017-07-23T02:09:33.960Z,40.40
2017-07-23T02:12:02.846Z,41.50
2017-07-23T02:14:31.762Z,44.17
2017-07-23T02:17:00.646Z,53.47
2017-07-23T02:19:29.530Z,37.13
2017-07-23T02:21:58.437Z,36.73
2017-07-23T02:24:27.403Z,36.13
2017-07-23T02:26:56.308Z,36.73
2017-07-23T02:29:25.187Z,55.77
2017-07-23T02:31:54.092Z,35.73
2017-07-23T02:34:22.980Z,37.90
2017-07-23T02:36:51.879Z,38.90
2017-07-23T02:39:20.766Z,39.93
2017-07-23T02:41:49.678Z,68.60
2017-07-23T02:44:18.643Z,118.40
2017-07-23T02:46:47.529Z,87.83
2017-07-23T02:49:16.418Z,71.17
2017-07-23T02:51:45.309Z,77.97
2017-07-23T02:54:14.186Z,46.53
2017-07-23T02:56:43.096Z,47.33
2017-07-23T02:59:12.058Z,80.33
2017-07-23T03:01:40.959Z,34.47
2017-07-23T03:04:09.833Z,45.40
2017-07-23T03:06:38.720Z,45.70
2017-07-23T03:09:07.631Z,43.20
2017-07-23T03:11:36.524Z,44.07
2017-07-23T03:14:05.415Z,41.30
2017-07-23T03:16:34.310Z,41.07
2017-07-23T03:19:03.207Z,69.30
2017-07-23T03:21:32.089Z,77.30
2017-07-23T03:24:00.989Z,114.97
2017-07-23T03:26:29.879Z,78.20
2017-07-23T03:28:58.879Z,29.77
2017-07-23T03:31:27.742Z,29.27
2017-07-23T03:33:56.646Z,170.67
2017-07-23T03:36:25.541Z,111.60
2017-07-23T03:38:54.442Z,110.17
2017-07-23T03:41:23.341Z,136.30
2017-07-23T03:43:52.229Z,73.57
2017-07-23T03:46:21.118Z,71.17
2017-07-23T03:48:49.996Z,85.00
2017-07-23T03:51:18.900Z,87.50
2017-07-23T03:53:47.795Z,29.90
2017-07-23T03:56:16.694Z,55.50
2017-07-23T03:58:45.580Z,59.73
2017-07-23T04:01:14.484Z,39.87
2017-07-23T04:03:43.358Z,50.60
2017-07-23T04:06:12.355Z,37.37
2017-07-23T04:08:41.252Z,40.50
2017-07-23T04:11:10.175Z,38.60
2017-07-23T04:13:39.138Z,33.17
2017-07-23T04:16:08.150Z,28.60
2017-07-23T04:18:37.042Z,31.27
2017-07-23T04:21:06.032Z,32.40
2017-07-23T04:23:34.924Z,27.70
2017-07-23T04:26:03.815Z,30.07
2017-07-23T04:28:32.710Z,26.33
2017-07-23T04:31:01.590Z,28.03
2017-07-23T04:33:30.596Z,21.60
2017-07-23T04:35:59.483Z,24.80
2017-07-23T04:38:28.400Z,25.53
2017-07-23T04:40:57.365Z,26.97
2017-07-23T04:43:26.356Z,25.23
2017-07-23T04:45:55.264Z,23.10
2017-07-23T04:48:24.251Z,24.37
2017-07-23T04:50:53.131Z,21.23
2017-07-23T04:53:22.035Z,22.77
2017-07-23T04:55:50.917Z,18.37
2017-07-23T04:58:19.817Z,22.60
2017-07-23T05:00:48.704Z,21.30
2017-07-23T05:03:17.612Z,15.07
2017-07-23T05:05:46.487Z,14.73
2017-07-23T05:08:15.368Z,18.07
2017-07-23T05:10:44.254Z,16.67
2017-07-23T05:13:13.198Z,13.10
2017-07-23T05:15:42.103Z,19.30
2017-07-23T05:18:10.996Z,22.07
2017-07-23T05:20:39.895Z,15.50
2017-07-23T05:23:08.786Z,15.20
2017-07-23T05:25:37.703Z,17.17
2017-07-23T05:28:06.619Z,15.50
2017-07-23T05:30:35.508Z,14.37
2017-07-23T05:33:04.391Z,19.67
2017-07-23T05:35:33.400Z,16.53
2017-07-23T05:38:02.371Z,17.60
2017-07-23T05:40:31.258Z,15.37
2017-07-23T05:43:00.180Z,14.20
2017-07-23T05:45:29.073Z,13.37
2017-07-23T05:47:57.960Z,17.50
2017-07-23T05:50:26.952Z,14.90
2017-07-23T05:52:55.842Z,16.50
2017-07-23T05:55:24.723Z,18.87
2017-07-23T05:57:53.619Z,14.37
2017-07-23T06:00:22.497Z,14.67
2017-07-23T06:02:51.432Z,16.00
2017-07-23T06:05:20.399Z,17.33
2017-07-23T06:07:49.328Z,14.53
2017-07-23T06:10:18.206Z,13.50
2017-07-23T06:12:47.114Z,18.63
2017-07-23T06:15:16.011Z,15.83
2017-07-23T06:17:44.905Z,18.67
2017-07-23T06:20:13.795Z,21.40
2017-07-23T06:22:42.695Z,22.73
2017-07-23T06:25:11.595Z,25.23
2017-07-23T06:27:40.491Z,26.00
2017-07-23T06:30:09.380Z,29.73
2017-07-23T06:32:38.298Z,27.23
2017-07-23T06:35:07.171Z,27.80
2017-07-23T06:37:36.064Z,28.37
2017-07-23T06:40:04.958Z,27.93
2017-07-23T06:42:33.842Z,28.47
2017-07-23T06:45:02.741Z,32.23
2017-07-23T06:47:31.653Z,29.63
2017-07-23T06:50:00.540Z,30.70
2017-07-23T06:52:29.426Z,39.17
2017-07-23T06:54:58.317Z,33.77
2017-07-23T06:57:27.203Z,33.30
2017-07-23T06:59:56.094Z,28.30
2017-07-23T07:02:25.019Z,25.73
2017-07-23T07:04:53.928Z,25.17
2017-07-23T07:07:22.821Z,19.83
2017-07-23T07:09:51.728Z,20.00
2017-07-23T07:12:20.620Z,22.07
2017-07-23T07:14:49.509Z,22.03
2017-07-23T07:17:18.403Z,21.33
2017-07-23T07:19:47.311Z,21.90
2017-07-23T07:22:16.242Z,23.50
2017-07-23T07:24:45.126Z,22.77
2017-07-23T07:27:14.038Z,23.03
2017-07-23T07:29:42.916Z,20.53
2017-07-23T07:32:11.919Z,22.23
2017-07-23T07:34:40.812Z,20.70
2017-07-23T07:37:09.731Z,21.30
2017-07-23T07:39:38.620Z,21.57
2017-07-23T07:42:07.530Z,20.07
2017-07-23T07:44:36.418Z,18.80
2017-07-23T07:47:05.376Z,17.63
2017-07-23T07:49:34.266Z,17.13
2017-07-23T07:52:03.164Z,17.63
2017-07-23T07:54:32.047Z,18.37
2017-07-23T07:57:00.956Z,17.50
2017-07-23T07:59:29.873Z,15.13
2017-07-23T08:01:58.827Z,16.67
2017-07-23T08:04:27.747Z,15.43
2017-07-23T08:06:56.643Z,16.27
2017-07-23T08:09:25.539Z,15.53
2017-07-23T08:11:54.410Z,15.97
2017-07-23T08:14:23.310Z,15.93
2017-07-23T08:16:52.233Z,15.73
2017-07-23T08:19:21.180Z,16.10
2017-07-23T08:21:50.062Z,16.27
2017-07-23T08:24:18.964Z,14.53
2017-07-23T08:26:47.850Z,17.13
2017-07-23T08:29:16.778Z,12.23
2017-07-23T08:31:45.646Z,13.13
2017-07-23T08:34:14.562Z,14.50
2017-07-23T08:36:43.458Z,13.77
2017-07-23T08:39:12.334Z,15.47
2017-07-23T08:41:41.238Z,13.00
2017-07-23T08:44:10.130Z,14.40
2017-07-23T08:46:39.032Z,16.47
2017-07-23T08:49:07.919Z,15.37
2017-07-23T08:51:36.832Z,13.70
2017-07-23T08:54:05.763Z,12.97
2017-07-23T08:56:34.669Z,14.00
2017-07-23T08:59:03.553Z,13.77
2017-07-23T09:01:32.451Z,13.30
2017-07-23T09:04:01.344Z,13.63
2017-07-23T09:06:30.289Z,12.60
2017-07-23T09:08:59.182Z,12.70
2017-07-23T09:11:28.083Z,14.20
2017-07-23T09:13:57.003Z,13.40
2017-07-23T09:16:25.915Z,13.57
2017-07-23T09:18:54.802Z,11.50
2017-07-23T09:21:23.694Z,12.23
2017-07-23T09:23:52.663Z,13.20
2017-07-23T09:26:21.566Z,12.37
2017-07-23T09:28:50.461Z,11.60
2017-07-23T09:31:19.367Z,12.97
2017-07-23T09:33:48.246Z,12.50
2017-07-23T09:36:17.139Z,11.53
2017-07-23T09:38:46.189Z,11.90
2017-07-23T09:41:15.082Z,12.43
2017-07-23T09:43:43.992Z,13.20
2017-07-23T09:46:12.876Z,12.70
2017-07-23T09:48:41.784Z,12.63
2017-07-23T09:51:10.683Z,12.57
2017-07-23T09:53:39.573Z,10.97
2017-07-23T09:56:08.459Z,11.40
2017-07-23T09:58:37.399Z,10.27
2017-07-23T10:01:06.349Z,11.67
2017-07-23T10:03:35.250Z,11.30
2017-07-23T10:06:04.129Z,10.80
2017-07-23T10:08:33.025Z,10.57
2017-07-23T10:11:01.901Z,9.53
2017-07-23T10:13:30.893Z,9.87
2017-07-23T10:15:59.778Z,11.13
2017-07-23T10:18:28.679Z,9.80
2017-07-23T10:20:57.581Z,10.20
2017-07-23T10:23:26.454Z,8.70
2017-07-23T10:25:55.355Z,9.70
2017-07-23T10:28:24.244Z,10.07
2017-07-23T10:30:53.164Z,10.23
2017-07-23T10:33:22.135Z,10.43
2017-07-23T10:35:51.064Z,8.87
2017-07-23T10:38:19.943Z,9.37
2017-07-23T10:40:48.835Z,9.87
2017-07-23T10:43:17.810Z,10.13
2017-07-23T10:45:46.694Z,9.27
2017-07-23T10:48:15.586Z,10.57
2017-07-23T10:50:44.488Z,10.40
2017-07-23T10:53:13.380Z,9.50
2017-07-23T10:55:42.376Z,10.60
2017-07-23T10:58:11.289Z,8.20
2017-07-23T11:00:40.197Z,9.55
2017-07-23T11:03:09.119Z,8.32
2017-07-23T11:05:38.034Z,7.18
2017-07-23T11:08:06.923Z,7.18
2017-07-23T11:10:35.806Z,6.70
2017-07-23T11:13:04.800Z,6.13
2017-07-23T11:15:33.683Z,4.60
2017-07-23T11:18:02.597Z,5.40
2017-07-23T11:20:31.535Z,5.00
2017-07-23T11:23:00.434Z,5.87
2017-07-23T11:25:29.340Z,4.30
2017-07-23T11:27:58.259Z,5.20
2017-07-23T11:30:27.239Z,4.90
2017-07-23T11:32:56.131Z,5.40
2017-07-23T11:35:25.011Z,4.97
2017-07-23T11:37:57.702Z,4.90
2017-07-23T11:40:26.629Z,4.80
2017-07-23T11:42:55.527Z,5.73
2017-07-23T11:45:24.416Z,4.63
2017-07-23T11:47:53.296Z,4.93
2017-07-23T11:50:22.278Z,5.10
2017-07-23T11:52:51.234Z,4.80
2017-07-23T11:55:20.183Z,4.90
2017-07-23T11:57:49.065Z,4.27
2017-07-23T12:00:17.966Z,4.50
2017-07-23T12:02:46.956Z,3.87
2017-07-23T12:05:15.869Z,3.57
2017-07-23T12:07:44.734Z,4.97
2017-07-23T12:10:15.584Z,4.70
2017-07-23T12:12:44.602Z,5.07
2017-07-23T12:15:13.491Z,3.80
2017-07-23T12:17:42.371Z,4.60
2017-07-23T12:20:11.587Z,4.47
2017-07-23T12:22:41.278Z,6.27
2017-07-23T12:25:10.249Z,4.37
2017-07-23T12:27:39.213Z,4.07
2017-07-23T12:30:08.117Z,3.63
2017-07-23T12:32:37.000Z,3.67
2017-07-23T12:35:05.922Z,3.33
2017-07-23T12:37:34.919Z,3.17
2017-07-23T12:40:03.805Z,2.95
2017-07-23T12:42:32.706Z,2.72
2017-07-23T12:45:01.766Z,3.62
2017-07-23T12:47:30.669Z,2.95
2017-07-23T12:49:59.550Z,3.08
2017-07-23T12:52:28.442Z,2.62
2017-07-23T12:54:57.336Z,2.70
2017-07-23T12:57:26.241Z,2.53
2017-07-23T12:59:55.151Z,2.90
2017-07-23T13:02:24.067Z,2.87
2017-07-23T13:04:52.935Z,3.05
2017-07-23T13:07:31.479Z,3.37
2017-07-23T13:10:00.346Z,2.60
2017-07-23T13:12:29.257Z,4.53
2017-07-23T13:14:58.136Z,4.03
2017-07-23T13:17:27.020Z,3.15
2017-07-23T13:19:55.913Z,2.80
2017-07-23T13:22:24.797Z,3.20
2017-07-23T13:24:53.699Z,2.80
2017-07-23T13:27:22.573Z,3.35
2017-07-23T13:29:51.555Z,3.25
2017-07-23T13:32:20.439Z,3.90
2017-07-23T13:34:49.338Z,3.47
2017-07-23T13:37:18.223Z,3.00
2017-07-23T13:39:47.127Z,2.40
2017-07-23T13:42:16.081Z,5.77
2017-07-23T13:44:45.004Z,4.10
2017-07-23T13:47:13.893Z,3.47
2017-07-23T13:49:42.784Z,5.43
2017-07-23T13:52:11.671Z,2.97
2017-07-23T13:54:40.594Z,2.23
2017-07-23T13:57:09.481Z,3.50
2017-07-23T13:59:38.354Z,3.07
2017-07-23T14:02:07.259Z,4.37
2017-07-23T14:04:36.159Z,2.77
2017-07-23T14:07:05.062Z,2.47
2017-07-23T14:09:34.029Z,2.00
2017-07-23T14:12:02.931Z,3.77
2017-07-23T14:14:31.816Z,2.60
2017-07-23T14:17:00.711Z,3.53
2017-07-23T14:19:29.600Z,2.50
2017-07-23T14:21:58.503Z,2.90
2017-07-23T14:24:27.373Z,2.00
2017-07-23T14:26:56.287Z,3.20
2017-07-23T14:29:25.180Z,2.57
2017-07-23T14:31:54.090Z,2.93
2017-07-23T14:34:22.965Z,2.30
2017-07-23T14:36:51.862Z,3.40
2017-07-23T14:39:20.748Z,2.60
2017-07-23T14:41:49.739Z,2.37
2017-07-23T14:44:18.631Z,3.60
2017-07-23T14:46:47.521Z,2.80
2017-07-23T14:49:16.411Z,3.30
2017-07-23T14:51:45.307Z,3.33
2017-07-23T14:54:14.197Z,4.50
2017-07-23T14:56:43.091Z,3.93
2017-07-23T14:59:11.992Z,3.20
2017-07-23T15:01:40.990Z,3.03
2017-07-23T15:04:09.886Z,2.50
2017-07-23T15:06:38.769Z,3.20
2017-07-23T15:09:07.758Z,3.30
2017-07-23T15:11:36.682Z,3.37
2017-07-23T15:14:05.583Z,3.30
2017-07-23T15:16:34.464Z,4.60
2017-07-23T15:19:03.371Z,4.53
2017-07-23T15:21:32.264Z,3.70
2017-07-23T15:24:01.197Z,4.70
2017-07-23T15:26:30.129Z,3.60
2017-07-23T15:28:59.003Z,2.97
2017-07-23T15:31:27.887Z,2.40
2017-07-23T15:33:56.756Z,2.50
2017-07-23T15:36:25.654Z,2.07
2017-07-23T15:38:54.543Z,2.43
2017-07-23T15:41:23.460Z,3.37
2017-07-23T15:43:52.343Z,4.87
2017-07-23T15:46:21.311Z,2.50
2017-07-23T15:48:50.239Z,2.87
2017-07-23T15:51:19.122Z,2.90
2017-07-23T15:53:47.999Z,3.07
2017-07-23T15:56:16.907Z,2.63
2017-07-23T15:58:45.794Z,2.60
2017-07-23T16:01:14.686Z,3.43
2017-07-23T16:03:43.563Z,2.33
2017-07-23T16:06:12.443Z,4.53
2017-07-23T16:08:41.359Z,2.37
2017-07-23T16:11:10.241Z,1.67
2017-07-23T16:13:39.267Z,2.03
2017-07-23T16:16:08.153Z,2.40
2017-07-23T16:18:37.056Z,2.07
2017-07-23T16:21:05.927Z,3.80
2017-07-23T16:23:34.823Z,3.00
2017-07-23T16:26:03.697Z,3.13
2017-07-23T16:28:32.592Z,4.33
2017-07-23T16:31:01.487Z,5.10
2017-07-23T16:33:30.395Z,3.10
2017-07-23T16:35:59.283Z,4.07
2017-07-23T16:38:28.169Z,6.00
2017-07-23T16:40:57.066Z,3.30
2017-07-23T16:43:25.959Z,3.40
2017-07-23T16:45:54.839Z,3.20
2017-07-23T16:48:23.734Z,5.40
2017-07-23T16:50:52.629Z,3.50
2017-07-23T16:53:21.606Z,5.13
2017-07-23T16:55:50.507Z,3.50
2017-07-23T16:58:19.388Z,3.63
2017-07-23T17:00:48.299Z,4.50
2017-07-23T17:03:17.288Z,2.40
2017-07-23T17:05:46.187Z,4.20
2017-07-23T17:08:15.080Z,4.30
2017-07-23T17:10:43.975Z,2.27
2017-07-23T17:13:12.859Z,6.10
2017-07-23T17:15:41.755Z,3.50
2017-07-23T17:18:10.681Z,4.13
2017-07-23T17:20:39.579Z,5.77
2017-07-23T17:23:08.462Z,4.40
2017-07-23T17:25:37.414Z,36.57
2017-07-23T17:28:06.291Z,6.83
2017-07-23T17:30:35.199Z,5.70
2017-07-23T17:33:04.090Z,9.10
2017-07-23T17:35:33.004Z,14.47
2017-07-23T17:38:01.898Z,4.73
2017-07-23T17:40:30.779Z,4.47
2017-07-23T17:42:59.684Z,8.00
2017-07-23T17:45:28.570Z,34.90
2017-07-23T17:47:57.471Z,19.43
2017-07-23T17:50:26.431Z,8.03
2017-07-23T17:52:55.317Z,6.93
2017-07-23T17:55:24.208Z,3.83
2017-07-23T17:57:53.117Z,3.60
2017-07-23T18:00:21.990Z,3.30
2017-07-23T18:02:50.900Z,3.63
2017-07-23T18:05:19.769Z,3.30
2017-07-23T18:07:48.675Z,4.23
2017-07-23T18:10:17.564Z,2.50
2017-07-23T18:12:46.467Z,3.80
2017-07-23T18:15:15.338Z,3.17
2017-07-23T18:17:44.215Z,3.23
2017-07-23T18:20:13.111Z,4.00
2017-07-23T18:22:42.003Z,4.53
2017-07-23T18:25:10.919Z,4.73
2017-07-23T18:27:39.912Z,5.93
2017-07-23T18:30:08.811Z,5.47
2017-07-23T18:32:37.699Z,4.30
2017-07-23T18:35:06.874Z,3.67
2017-07-23T18:37:35.755Z,2.57
2017-07-23T18:40:04.650Z,4.07
2017-07-23T18:42:33.576Z,3.70
2017-07-23T18:45:02.462Z,3.00
2017-07-23T18:47:31.445Z,5.77
2017-07-23T18:50:00.346Z,8.30
2017-07-23T18:52:29.213Z,8.43
2017-07-23T18:54:58.102Z,7.27
2017-07-23T18:57:26.974Z,6.90
2017-07-23T18:59:55.923Z,5.93
2017-07-23T19:02:24.803Z,6.23
2017-07-23T19:04:53.680Z,3.50
2017-07-23T19:07:22.695Z,3.60
2017-07-23T19:09:51.759Z,3.50
2017-07-23T19:12:20.646Z,4.50
2017-07-23T19:14:49.557Z,4.60
2017-07-23T19:17:18.459Z,5.33
2017-07-23T19:19:47.341Z,4.80
2017-07-23T19:22:16.259Z,3.90
2017-07-23T19:24:45.160Z,6.23
2017-07-23T19:27:14.046Z,4.67
2017-07-23T19:29:42.927Z,3.57
2017-07-23T19:32:11.813Z,4.20
2017-07-23T19:34:40.763Z,3.73
2017-07-23T19:37:09.654Z,3.77
2017-07-23T19:39:38.580Z,3.67
2017-07-23T19:42:07.479Z,4.50
2017-07-23T19:44:36.390Z,3.53
2017-07-23T19:47:05.257Z,5.77
2017-07-23T19:49:34.156Z,6.53
2017-07-23T19:52:03.055Z,3.93
2017-07-23T19:54:31.946Z,5.00
2017-07-23T19:57:00.823Z,7.17
2017-07-23T19:59:29.817Z,7.80
2017-07-23T20:01:58.700Z,5.73
2017-07-23T20:04:27.596Z,4.63
2017-07-23T20:06:56.460Z,5.90
2017-07-23T20:09:25.372Z,7.90
2017-07-23T20:11:54.253Z,5.20
2017-07-23T20:14:23.148Z,7.57
2017-07-23T20:16:52.017Z,7.50
2017-07-23T20:19:20.918Z,8.20
2017-07-23T20:21:49.860Z,5.33
2017-07-23T20:24:18.735Z,4.40
2017-07-23T20:26:47.647Z,5.13
2017-07-23T20:29:16.528Z,6.37
2017-07-23T20:31:45.423Z,4.97
2017-07-23T20:34:14.288Z,3.83
2017-07-23T20:36:43.182Z,3.63
2017-07-23T20:39:12.067Z,5.90
2017-07-23T20:41:40.994Z,4.73
2017-07-23T20:44:09.864Z,5.20
2017-07-23T20:46:38.746Z,4.80
2017-07-23T20:49:07.637Z,15.90
2017-07-23T20:51:36.536Z,5.97
2017-07-23T20:54:05.456Z,6.33
2017-07-23T20:56:34.445Z,6.03
2017-07-23T20:59:03.440Z,6.80
2017-07-23T21:01:32.339Z,9.10
2017-07-23T21:04:01.215Z,6.63
2017-07-23T21:06:30.115Z,4.70
2017-07-23T21:08:59.079Z,7.43
2017-07-23T21:11:28.000Z,6.47
2017-07-23T21:13:56.898Z,5.20
2017-07-23T21:16:25.776Z,5.30
2017-07-23T21:18:54.666Z,5.23
2017-07-23T21:21:23.542Z,8.60
2017-07-23T21:23:52.559Z,7.97
2017-07-23T21:26:21.548Z,7.03
2017-07-23T21:28:50.446Z,7.20
2017-07-23T21:31:19.334Z,6.93
2017-07-23T21:33:48.226Z,4.53
2017-07-23T21:36:17.096Z,9.30
2017-07-23T21:38:45.988Z,7.40
2017-07-23T21:41:14.864Z,4.40
2017-07-23T21:43:43.756Z,18.87
2017-07-23T21:46:12.627Z,7.80
2017-07-23T21:48:41.513Z,9.50
2017-07-23T21:51:10.395Z,7.90
2017-07-23T21:53:39.296Z,7.17
2017-07-23T21:56:08.251Z,5.83
2017-07-23T21:58:37.122Z,5.93
2017-07-23T22:01:06.076Z,5.07
2017-07-23T22:03:34.956Z,6.90
2017-07-23T22:06:03.862Z,5.53
2017-07-23T22:08:32.757Z,7.93
2017-07-23T22:11:01.675Z,15.63
2017-07-23T22:13:30.670Z,9.23
2017-07-23T22:15:59.579Z,6.77
2017-07-23T22:18:28.466Z,6.80
2017-07-23T22:20:57.385Z,7.40
2017-07-23T22:23:26.261Z,7.40
2017-07-23T22:25:55.163Z,7.10
2017-07-23T22:28:24.037Z,5.43
2017-07-23T22:30:52.955Z,6.40
2017-07-23T22:33:21.830Z,7.73
2017-07-23T22:35:50.711Z,7.20
2017-07-23T22:38:19.603Z,8.30
2017-07-23T22:40:48.465Z,6.73
2017-07-23T22:43:17.353Z,8.63
2017-07-23T22:45:46.217Z,7.73
2017-07-23T22:48:15.103Z,7.50
2017-07-23T22:50:43.974Z,6.30
2017-07-23T22:53:12.983Z,6.83
2017-07-23T22:55:41.960Z,6.73
2017-07-23T22:58:10.962Z,7.10
2017-07-23T23:00:39.978Z,6.30
2017-07-23T23:03:08.893Z,5.80
2017-07-23T23:05:37.779Z,5.97
2017-07-23T23:08:06.727Z,7.83
2017-07-23T23:10:35.617Z,6.60
2017-07-23T23:13:04.510Z,6.50
2017-07-23T23:15:33.506Z,5.00
2017-07-23T23:18:02.388Z,5.93
2017-07-23T23:20:31.320Z,5.70
2017-07-23T23:23:00.212Z,8.50
2017-07-23T23:25:29.101Z,5.87
2017-07-23T23:27:57.991Z,5.20
2017-07-23T23:30:26.895Z,4.20
2017-07-23T23:32:55.831Z,5.00
2017-07-23T23:35:24.730Z,5.27
2017-07-23T23:37:53.597Z,5.70
2017-07-23T23:40:22.486Z,5.30
2017-07-23T23:42:51.371Z,5.40
2017-07-23T23:45:20.295Z,5.83
2017-07-23T23:47:49.197Z,5.77
2017-07-23T23:50:18.109Z,5.00
2017-07-23T23:52:46.993Z,5.30
2017-07-23T23:55:15.891Z,5.13
2017-07-23T23:57:44.766Z,4.10
